Time;durP1;ratioP1;P1;durP2;ratioP2;P2;SDS_P1;SDS_P2;PMS_P1;PMS_P2;Temp;Humidity;BMP_temperature;BMP_pressure;BME280_temperature;BME280_humidity;BME280_pressure;Samples;Min_cycle;Max_cycle;Signal;HPM_P1;HPM_P2
2022/10/10 00:01:26;;;;;;;11.15;9.05;;;9.80;99.90;;;;;;5062710;28;20640;-85
2022/10/10 00:04:01;;;;;;;11.68;9.02;;;9.90;99.90;;;;;;5070160;28;20189;-84
2022/10/10 00:06:53;;;;;;;13.15;9.57;;;10.10;99.90;;;;;;5071871;28;20715;-84
2022/10/10 00:09:24;;;;;;;15.52;9.77;;;10.00;99.90;;;;;;5072693;28;20200;-84
2022/10/10 00:11:54;;;;;;;19.77;10.15;;;10.00;99.90;;;;;;5073396;28;20219;-85
2022/10/10 00:14:20;;;;;;;11.57;9.18;;;10.00;99.90;;;;;;5072231;28;20284;-84
2022/10/10 00:16:47;;;;;;;16.02;10.00;;;10.10;99.90;;;;;;5072913;28;20205;-85
2022/10/10 00:19:15;;;;;;;15.73;9.75;;;10.00;99.90;;;;;;5069363;28;20201;-84
2022/10/10 00:21:48;;;;;;;15.95;10.25;;;10.10;99.90;;;;;;5073893;28;20207;-86
2022/10/10 00:24:29;;;;;;;20.02;10.60;;;10.10;99.90;;;;;;5073601;28;20225;-84
2022/10/10 00:27:12;;;;;;;13.13;10.63;;;10.20;99.90;;;;;;5069967;28;20565;-84
2022/10/10 00:29:42;;;;;;;16.13;10.90;;;10.10;99.90;;;;;;5086431;28;20232;-85
2022/10/10 00:32:12;;;;;;;15.73;10.60;;;10.20;99.90;;;;;;5065610;28;20243;-85
2022/10/10 00:34:40;;;;;;;13.75;11.15;;;10.20;99.90;;;;;;5071323;28;20197;-88
2022/10/10 00:37:07;;;;;;;18.40;10.70;;;10.20;99.90;;;;;;5062043;28;20200;-85
2022/10/10 00:39:33;;;;;;;20.83;11.00;;;10.10;99.90;;;;;;5071804;28;20674;-87
2022/10/10 00:42:06;;;;;;;20.17;11.85;;;10.00;99.90;;;;;;5065956;28;20189;-84
2022/10/10 00:44:32;;;;;;;13.88;10.98;;;10.00;99.90;;;;;;5068788;28;20561;-85
2022/10/10 00:46:59;;;;;;;16.58;11.63;;;10.00;99.90;;;;;;5073127;28;20223;-85
2022/10/10 00:49:30;;;;;;;13.13;11.20;;;10.10;99.90;;;;;;5076419;28;20284;-84
2022/10/10 00:52:00;;;;;;;16.55;11.15;;;10.20;99.90;;;;;;5071677;28;20248;-85
2022/10/10 00:54:28;;;;;;;16.48;12.30;;;10.20;99.90;;;;;;5078504;28;20228;-86
2022/10/10 00:57:00;;;;;;;15.57;11.45;;;10.20;99.90;;;;;;5077563;28;20213;-85
2022/10/10 00:59:32;;;;;;;16.35;12.07;;;10.20;99.90;;;;;;5077974;28;20283;-85
2022/10/10 01:02:00;;;;;;;18.83;11.95;;;10.30;99.90;;;;;;5070334;28;20242;-88
2022/10/10 01:04:34;;;;;;;14.05;11.20;;;10.30;99.90;;;;;;5076102;28;20225;-85
2022/10/10 01:07:05;;;;;;;14.68;11.38;;;10.30;99.90;;;;;;5076975;28;20197;-84
2022/10/10 01:09:33;;;;;;;15.20;11.02;;;10.40;99.90;;;;;;5078472;28;20198;-85
2022/10/10 01:12:13;;;;;;;13.73;10.52;;;10.50;99.90;;;;;;5076059;28;20205;-85
2022/10/10 01:15:01;;;;;;;13.57;11.88;;;10.60;99.90;;;;;;5077746;28;20220;-86
2022/10/10 01:17:32;;;;;;;14.00;11.00;;;10.70;99.90;;;;;;5073114;28;20193;-86
2022/10/10 01:20:25;;;;;;;15.07;11.40;;;10.70;99.90;;;;;;5083732;28;20576;-85
2022/10/10 01:26:37;;;;;;;15.38;10.73;;;10.70;99.90;;;;;;5065308;28;20229;-84
2022/10/10 01:29:11;;;;;;;13.82;10.82;;;10.70;99.90;;;;;;5078067;28;20197;-84
2022/10/10 01:31:45;;;;;;;14.63;10.35;;;10.80;99.90;;;;;;5081818;28;20560;-85
2022/10/10 01:34:24;;;;;;;13.75;9.88;;;10.80;99.90;;;;;;5070859;28;20201;-84
2022/10/10 01:36:55;;;;;;;14.75;9.88;;;10.80;99.90;;;;;;5078503;28;20196;-86
2022/10/10 01:39:38;;;;;;;13.93;10.57;;;10.70;99.90;;;;;;5078941;28;20197;-89
2022/10/10 01:42:10;;;;;;;10.82;9.68;;;10.70;99.90;;;;;;5078086;28;20201;-85
2022/10/10 01:44:52;;;;;;;16.02;11.00;;;10.80;99.90;;;;;;5076747;28;20295;-86
2022/10/10 01:47:20;;;;;;;13.13;10.52;;;10.80;99.90;;;;;;5080286;28;20611;-86
2022/10/10 01:49:48;;;;;;;19.15;10.75;;;10.80;99.90;;;;;;5076034;28;20200;-89
2022/10/10 01:52:29;;;;;;;15.10;10.45;;;10.80;99.90;;;;;;5079840;28;20248;-84
2022/10/10 01:55:26;;;;;;;17.10;10.38;;;10.70;99.90;;;;;;5074107;28;20199;-85
2022/10/10 01:58:02;;;;;;;14.25;11.00;;;10.80;99.90;;;;;;5075118;28;20568;-84
2022/10/10 02:00:35;;;;;;;14.52;10.45;;;10.80;99.90;;;;;;5076298;28;20548;-85
2022/10/10 02:03:10;;;;;;;14.07;10.63;;;10.80;99.90;;;;;;5077708;28;20197;-85
2022/10/10 02:05:43;;;;;;;11.43;10.20;;;10.70;99.90;;;;;;5078826;28;20221;-84
2022/10/10 02:08:15;;;;;;;11.75;9.70;;;10.80;99.90;;;;;;5077849;28;20291;-85
2022/10/10 02:10:52;;;;;;;11.23;10.02;;;10.80;99.90;;;;;;5073568;28;20289;-86
2022/10/10 02:13:36;;;;;;;11.50;10.18;;;10.90;99.90;;;;;;5076366;28;20671;-84
2022/10/10 02:16:33;;;;;;;10.43;9.05;;;10.90;99.90;;;;;;5076800;28;20205;-84
2022/10/10 02:19:08;;;;;;;12.23;10.27;;;10.90;99.90;;;;;;5081246;28;20197;-85
2022/10/10 02:21:38;;;;;;;13.25;10.30;;;10.90;99.90;;;;;;5065831;28;20197;-84
2022/10/10 02:24:08;;;;;;;12.00;10.70;;;10.90;99.90;;;;;;5063227;28;20193;-84
2022/10/10 02:26:36;;;;;;;12.63;11.32;;;10.90;99.90;;;;;;5073845;28;20833;-84
2022/10/10 02:29:10;;;;;;;14.98;11.63;;;10.90;99.90;;;;;;5078145;28;20208;-84
2022/10/10 02:31:50;;;;;;;14.30;11.82;;;10.80;99.90;;;;;;5073350;28;20283;-85
2022/10/10 02:34:19;;;;;;;16.67;11.65;;;10.80;99.90;;;;;;5076283;28;20190;-84
2022/10/10 02:36:50;;;;;;;13.05;11.32;;;10.90;99.90;;;;;;5078508;28;20674;-86
2022/10/10 02:39:21;;;;;;;11.18;10.02;;;10.90;99.90;;;;;;5075011;28;20193;-85
2022/10/10 02:41:54;;;;;;;12.32;10.80;;;10.90;99.90;;;;;;5070529;28;20204;-86
2022/10/10 02:44:30;;;;;;;14.63;11.35;;;11.00;99.90;;;;;;5087097;28;20206;-84
2022/10/10 02:46:59;;;;;;;12.00;10.07;;;11.00;99.90;;;;;;5077223;28;20203;-84
2022/10/10 02:49:36;;;;;;;12.88;11.40;;;11.00;99.90;;;;;;5072751;28;20648;-85
2022/10/10 02:52:06;;;;;;;17.17;11.43;;;11.00;99.90;;;;;;5070960;28;20285;-85
2022/10/10 02:54:36;;;;;;;13.43;11.25;;;10.90;99.90;;;;;;5071670;28;20273;-85
2022/10/10 02:57:12;;;;;;;15.55;10.95;;;10.90;99.90;;;;;;5074727;28;20208;-84
2022/10/10 02:59:39;;;;;;;12.13;10.43;;;10.90;99.90;;;;;;5078722;28;20193;-87
2022/10/10 03:02:31;;;;;;;14.15;11.32;;;10.90;99.90;;;;;;5081878;28;20193;-84
2022/10/10 03:04:58;;;;;;;13.15;11.10;;;11.00;99.90;;;;;;5059437;28;20232;-85
2022/10/10 03:07:24;;;;;;;13.27;10.50;;;11.00;99.90;;;;;;5079716;28;20231;-85
2022/10/10 03:09:54;;;;;;;12.20;10.90;;;11.10;99.90;;;;;;5077881;28;20280;-85
2022/10/10 03:12:24;;;;;;;11.63;10.43;;;11.10;99.90;;;;;;5078897;28;20197;-85
2022/10/10 03:14:50;;;;;;;15.38;11.18;;;11.10;99.90;;;;;;5079129;28;20288;-85
2022/10/10 03:17:17;;;;;;;13.25;10.80;;;11.10;99.90;;;;;;5066710;28;20204;-84
2022/10/10 03:19:45;;;;;;;13.70;11.40;;;11.10;99.90;;;;;;5075709;28;20203;-84
2022/10/10 03:22:18;;;;;;;13.77;11.55;;;11.00;99.90;;;;;;5074075;28;20292;-86
2022/10/10 03:24:44;;;;;;;13.70;11.13;;;11.00;99.90;;;;;;5074884;28;20198;-84
2022/10/10 03:27:11;;;;;;;12.90;10.40;;;11.00;99.90;;;;;;5079133;28;20284;-85
2022/10/10 03:29:38;;;;;;;18.30;11.18;;;11.00;99.90;;;;;;5078672;28;20747;-85
2022/10/10 03:32:12;;;;;;;13.55;11.52;;;11.00;99.90;;;;;;5069212;28;20285;-84
2022/10/10 03:34:49;;;;;;;15.57;11.32;;;10.90;99.90;;;;;;5074226;28;20280;-86
2022/10/10 03:37:16;;;;;;;13.30;10.93;;;10.90;99.90;;;;;;5063106;28;20285;-85
2022/10/10 03:46:36;;;;;;;12.93;10.40;;;11.10;99.90;;;;;;5077767;28;20220;-84
2022/10/10 03:49:06;;;;;;;11.70;10.43;;;11.20;99.90;;;;;;5073201;28;20291;-84
2022/10/10 03:51:34;;;;;;;13.80;10.43;;;11.20;99.90;;;;;;5064992;28;20198;-85
2022/10/10 03:54:01;;;;;;;17.02;10.50;;;11.20;99.90;;;;;;5075324;28;20674;-84
2022/10/10 03:56:30;;;;;;;11.25;10.10;;;11.10;99.90;;;;;;5076285;28;20220;-84
2022/10/10 03:59:23;;;;;;;11.63;8.88;;;11.00;99.90;;;;;;5074475;28;20232;-85
2022/10/10 04:02:11;;;;;;;11.45;8.93;;;11.00;99.90;;;;;;5076134;28;20831;-84
2022/10/10 04:04:38;;;;;;;13.98;8.35;;;11.00;99.90;;;;;;5079099;28;20311;-85
2022/10/10 04:07:13;;;;;;;12.82;8.57;;;11.00;99.90;;;;;;5074228;28;20305;-84
2022/10/10 04:09:48;;;;;;;9.05;8.15;;;10.80;99.90;;;;;;5071911;28;20606;-85
2022/10/10 04:12:30;;;;;;;9.73;8.73;;;10.80;99.90;;;;;;5081969;28;20203;-85
2022/10/10 04:14:57;;;;;;;9.02;8.13;;;10.90;99.90;;;;;;5090138;28;20279;-85
2022/10/10 04:17:53;;;;;;;7.80;7.00;;;10.80;99.90;;;;;;5074731;28;20619;-84
2022/10/10 04:20:24;;;;;;;10.27;7.03;;;10.70;99.90;;;;;;5080994;28;20203;-86
2022/10/10 04:22:55;;;;;;;7.40;6.70;;;10.70;99.90;;;;;;5074603;28;20209;-85
2022/10/10 04:25:22;;;;;;;7.35;6.57;;;10.60;99.90;;;;;;5064554;28;20312;-85
2022/10/10 04:27:54;;;;;;;10.93;7.47;;;10.70;99.90;;;;;;5073425;28;20700;-85
2022/10/10 04:30:55;;;;;;;9.13;8.23;;;10.60;99.90;;;;;;5070916;28;20197;-84
2022/10/10 04:33:53;;;;;;;7.80;7.00;;;10.60;99.90;;;;;;5081869;28;20197;-84
2022/10/10 04:36:41;;;;;;;8.25;7.18;;;10.60;99.90;;;;;;5075794;28;20641;-84
2022/10/10 04:42:37;;;;;;;10.35;6.90;;;10.50;99.90;;;;;;5078375;28;20189;-84
2022/10/10 04:48:30;;;;;;;13.80;7.45;;;10.40;99.90;;;;;;5078895;28;20215;-85
2022/10/10 04:50:59;;;;;;;9.18;6.60;;;10.30;99.90;;;;;;5071752;28;20256;-84
2022/10/10 04:53:36;;;;;;;14.05;6.72;;;10.30;99.90;;;;;;5085424;28;20208;-84
2022/10/10 04:56:12;;;;;;;12.60;6.85;;;10.40;99.90;;;;;;5079898;28;20223;-89
2022/10/10 04:59:01;;;;;;;8.85;6.88;;;10.40;99.90;;;;;;5077343;28;20228;-85
2022/10/10 05:01:30;;;;;;;21.88;7.57;;;10.30;99.90;;;;;;5080668;28;20189;-86
2022/10/10 05:04:47;;;;;;;16.95;8.32;;;10.30;99.90;;;;;;5077315;28;20276;-87
2022/10/10 05:07:14;;;;;;;12.50;7.35;;;10.30;99.90;;;;;;5084870;28;20652;-86
2022/10/10 05:09:41;;;;;;;13.75;8.00;;;10.30;99.90;;;;;;5081680;28;20189;-84
2022/10/10 05:12:42;;;;;;;14.00;7.78;;;10.20;99.90;;;;;;5087076;28;20609;-85
2022/10/10 05:18:35;;;;;;;9.85;7.30;;;10.30;99.90;;;;;;5079357;28;20184;-86
2022/10/10 05:41:29;;;;;;;7.65;6.95;;;10.20;99.90;;;;;;5060415;28;20648;-86
2022/10/10 05:47:22;;;;;;;9.88;7.03;;;10.20;99.90;;;;;;5074535;28;20274;-85
2022/10/10 05:56:54;;;;;;;7.63;6.50;;;10.10;99.90;;;;;;5077635;28;20181;-84
2022/10/10 06:24:50;;;;;;;31.67;9.38;;;10.30;99.90;;;;;;5072237;28;20243;-84
2022/10/10 06:27:25;;;;;;;12.77;8.68;;;10.30;99.90;;;;;;5082595;28;20205;-84
2022/10/10 06:29:54;;;;;;;12.30;8.60;;;10.40;99.90;;;;;;5089381;28;20196;-85
2022/10/10 06:32:21;;;;;;;13.68;8.45;;;10.50;99.90;;;;;;5087890;28;20618;-84
2022/10/10 06:35:07;;;;;;;12.40;8.85;;;10.60;99.90;;;;;;5089288;28;20203;-84
2022/10/10 06:37:42;;;;;;;10.32;7.70;;;10.80;99.90;;;;;;5082637;28;20205;-85
2022/10/10 06:40:54;;;;;;;19.02;7.95;;;10.90;99.90;;;;;;5085901;28;20295;-85
2022/10/10 06:50:12;;;;;;;5.85;5.25;;;11.10;99.90;;;;;;5080306;28;20200;-84
2022/10/10 06:56:02;;;;;;;5.68;5.18;;;11.40;99.90;;;;;;5082142;28;20179;-85
2022/10/10 06:59:17;;;;;;;5.68;5.18;;;11.40;99.90;;;;;;5086562;28;20284;-84
2022/10/10 07:01:54;;;;;;;5.45;4.95;;;11.50;99.90;;;;;;5074090;28;20212;-84
2022/10/10 07:08:08;;;;;;;4.97;4.55;;;11.70;99.90;;;;;;5097598;28;20239;-85
2022/10/10 07:10:42;;;;;;;4.97;4.57;;;11.70;99.90;;;;;;5106914;28;20224;-85
2022/10/10 07:13:09;;;;;;;5.95;4.50;;;11.70;99.90;;;;;;5090336;28;20268;-85
2022/10/10 07:15:45;;;;;;;5.50;4.20;;;11.90;99.90;;;;;;5091341;28;20318;-85
2022/10/10 07:18:24;;;;;;;5.25;4.20;;;12.00;99.90;;;;;;5090061;28;20188;-85
2022/10/10 07:21:11;;;;;;;4.43;4.03;;;12.10;99.90;;;;;;5095438;28;20579;-85
2022/10/10 07:23:49;;;;;;;7.88;4.32;;;12.20;99.90;;;;;;5083284;28;20204;-85
2022/10/10 07:26:21;;;;;;;5.05;4.20;;;12.30;99.90;;;;;;5090264;28;20235;-85
2022/10/10 07:28:48;;;;;;;4.90;3.80;;;12.40;99.90;;;;;;5085705;28;20192;-85
2022/10/10 07:31:15;;;;;;;5.57;3.85;;;12.60;99.90;;;;;;5093420;28;20272;-86
2022/10/10 07:34:00;;;;;;;5.50;4.10;;;12.70;99.70;;;;;;5089660;28;20658;-86
2022/10/10 07:36:30;;;;;;;4.50;4.00;;;12.90;99.00;;;;;;5100222;28;20272;-85
2022/10/10 07:39:08;;;;;;;4.15;3.75;;;13.10;98.50;;;;;;5093894;28;20224;-85
2022/10/10 07:41:49;;;;;;;4.65;3.50;;;13.20;98.20;;;;;;5097697;28;20235;-85
2022/10/10 07:44:30;;;;;;;7.93;3.95;;;13.30;98.30;;;;;;5098356;28;20195;-85
2022/10/10 07:47:00;;;;;;;5.03;3.67;;;13.40;98.10;;;;;;5090222;28;20203;-86
2022/10/10 07:49:30;;;;;;;3.65;3.35;;;13.50;98.10;;;;;;5094047;28;20280;-86
2022/10/10 07:52:47;;;;;;;4.35;3.33;;;13.70;97.10;;;;;;5086572;28;20723;-86
2022/10/10 07:55:16;;;;;;;5.97;3.60;;;13.80;96.60;;;;;;5096239;28;20243;-86
2022/10/10 07:58:12;;;;;;;6.05;3.85;;;14.00;96.90;;;;;;5086090;28;20189;-86
2022/10/10 08:01:12;;;;;;;5.53;3.53;;;14.20;96.20;;;;;;5082201;28;20193;-86
2022/10/10 08:03:42;;;;;;;5.55;3.10;;;14.20;95.90;;;;;;5086079;28;20224;-87
2022/10/10 08:06:15;;;;;;;4.40;3.53;;;14.20;96.20;;;;;;5085094;28;20251;-85
2022/10/10 08:08:43;;;;;;;4.47;3.20;;;14.40;96.00;;;;;;5093649;28;20200;-86
2022/10/10 08:11:43;;;;;;;5.55;3.50;;;14.40;95.50;;;;;;5093084;28;20271;-86
2022/10/10 08:14:12;;;;;;;4.30;3.13;;;14.60;95.50;;;;;;5084054;28;20196;-87
2022/10/10 08:16:59;;;;;;;7.13;3.33;;;14.80;95.30;;;;;;5086086;28;20193;-86
2022/10/10 08:20:18;;;;;;;4.72;3.10;;;15.00;94.50;;;;;;5100444;28;20198;-86
2022/10/10 08:22:44;;;;;;;5.32;2.67;;;15.30;93.80;;;;;;5085882;28;20208;-86
2022/10/10 08:25:25;;;;;;;7.57;2.60;;;15.30;93.20;;;;;;5092908;28;20228;-86
2022/10/10 08:28:13;;;;;;;4.80;2.47;;;15.40;93.40;;;;;;5092188;28;20613;-86
2022/10/10 08:30:48;;;;;;;3.88;2.55;;;15.50;93.50;;;;;;5097512;28;20199;-87
2022/10/10 08:33:27;;;;;;;6.15;2.50;;;15.70;93.10;;;;;;5092967;28;20291;-86
2022/10/10 08:35:54;;;;;;;4.40;2.30;;;15.60;92.60;;;;;;5084848;28;20674;-86
2022/10/10 08:38:21;;;;;;;7.68;2.50;;;15.70;92.50;;;;;;5089012;28;20203;-86
2022/10/10 08:40:57;;;;;;;5.20;2.50;;;16.00;91.70;;;;;;5094983;28;20530;-86
2022/10/10 08:43:32;;;;;;;4.03;2.20;;;16.00;91.70;;;;;;5080804;28;20188;-86
2022/10/10 08:46:09;;;;;;;4.63;2.10;;;16.30;91.80;;;;;;5091220;28;20199;-87
2022/10/10 08:48:38;;;;;;;3.65;2.05;;;16.60;90.50;;;;;;5092987;28;20192;-86
2022/10/10 08:51:09;;;;;;;4.45;2.33;;;16.90;88.30;;;;;;5086461;28;20275;-83
2022/10/10 08:54:05;;;;;;;6.40;2.42;;;17.00;88.00;;;;;;5088576;28;20203;-89
2022/10/10 08:56:34;;;;;;;5.00;2.10;;;17.50;84.60;;;;;;5083680;28;20198;-83
2022/10/10 08:59:14;;;;;;;5.55;2.28;;;17.50;81.40;;;;;;5096045;28;20211;-83
2022/10/10 09:02:04;;;;;;;6.53;2.47;;;17.70;79.70;;;;;;5097282;28;20295;-84
2022/10/10 09:04:42;;;;;;;4.38;2.35;;;17.90;79.30;;;;;;5091803;28;20271;-83
2022/10/10 09:07:39;;;;;;;6.30;2.97;;;18.20;79.50;;;;;;5093762;28;20219;-83
2022/10/10 09:10:18;;;;;;;8.43;2.30;;;18.50;75.30;;;;;;5099149;28;20711;-83
2022/10/10 09:12:56;;;;;;;7.75;2.30;;;18.70;65.10;;;;;;5101367;28;20612;-83
2022/10/10 09:15:29;;;;;;;4.50;2.42;;;18.80;66.60;;;;;;5096738;28;20283;-83
2022/10/10 09:18:07;;;;;;;4.93;2.25;;;19.00;68.70;;;;;;5103074;28;20603;-88
2022/10/10 09:21:04;;;;;;;8.80;3.00;;;19.50;60.00;;;;;;5086948;28;20643;-82
2022/10/10 09:23:42;;;;;;;6.93;2.70;;;20.20;53.80;;;;;;5082582;28;20566;-79
2022/10/10 09:26:15;;;;;;;7.95;2.80;;;20.70;45.70;;;;;;5100674;28;20195;-82
2022/10/10 09:28:46;;;;;;;12.05;5.90;;;21.00;42.40;;;;;;5098891;28;20205;-85
2022/10/10 09:31:25;;;;;;;15.55;6.57;;;21.40;38.00;;;;;;5105778;28;20252;-82
2022/10/10 09:33:57;;;;;;;9.45;3.58;;;21.60;37.40;;;;;;5088842;28;20201;-82
2022/10/10 09:36:34;;;;;;;5.82;2.25;;;22.10;34.20;;;;;;5109952;28;20196;-82
2022/10/10 09:39:18;;;;;;;3.95;2.10;;;23.10;30.70;;;;;;5086509;28;20196;-82
2022/10/10 09:42:10;;;;;;;7.45;2.50;;;23.30;29.00;;;;;;5081478;28;20219;-82
2022/10/10 09:45:00;;;;;;;4.00;2.42;;;23.10;29.90;;;;;;5097089;28;20563;-82
2022/10/10 09:47:28;;;;;;;7.78;2.90;;;23.60;29.70;;;;;;5098005;28;20295;-83
2022/10/10 09:50:07;;;;;;;4.93;2.65;;;23.60;28.50;;;;;;5087983;28;20234;-83
2022/10/10 09:52:49;;;;;;;7.82;2.63;;;23.40;26.60;;;;;;5083145;28;20220;-83
2022/10/10 09:55:24;;;;;;;7.85;3.92;;;23.20;29.40;;;;;;5095509;28;20206;-82
2022/10/10 09:58:21;;;;;;;5.55;2.10;;;23.10;29.60;;;;;;5085242;28;20230;-82
2022/10/10 10:01:12;;;;;;;6.95;2.40;;;22.50;29.70;;;;;;5087160;28;20200;-82
2022/10/10 10:04:11;;;;;;;6.32;4.13;;;22.60;30.60;;;;;;5102660;28;20196;-82
2022/10/10 10:06:44;;;;;;;6.43;2.50;;;23.10;28.60;;;;;;5013770;28;20278;-82
2022/10/10 10:09:15;;;;;;;8.35;2.42;;;23.30;27.20;;;;;;5017468;28;20199;-82
2022/10/10 10:12:04;;;;;;;3.83;2.00;;;22.80;29.40;;;;;;5016008;28;20307;-82
2022/10/10 10:14:37;;;;;;;2.58;1.95;;;23.10;28.20;;;;;;5011195;28;20255;-82
2022/10/10 10:17:08;;;;;;;5.28;2.20;;;23.10;29.70;;;;;;5009222;28;20207;-82
2022/10/10 10:20:31;;;;;;;13.23;8.38;;;23.00;30.30;;;;;;5002479;28;20192;-82
2022/10/10 10:22:57;;;;;;;9.75;3.55;;;23.30;30.80;;;;;;5016616;28;20235;-83
2022/10/10 10:25:34;;;;;;;7.28;2.35;;;23.30;29.50;;;;;;5018966;28;20205;-83
2022/10/10 10:28:22;;;;;;;6.97;2.80;;;22.80;29.80;;;;;;5016103;28;20202;-82
2022/10/10 10:31:22;;;;;;;4.55;2.70;;;22.40;31.20;;;;;;5017743;28;20235;-83
2022/10/10 10:34:26;;;;;;;3.92;1.88;;;22.00;33.70;;;;;;5004401;28;20689;-85
2022/10/10 10:37:08;;;;;;;4.20;2.00;;;22.20;33.90;;;;;;5010740;28;20204;-83
2022/10/10 10:39:46;;;;;;;6.03;2.25;;;22.10;33.20;;;;;;5017756;28;20199;-82
2022/10/10 10:42:32;;;;;;;5.13;2.10;;;22.10;33.80;;;;;;5017405;28;20326;-82
2022/10/10 10:45:08;;;;;;;4.68;2.08;;;22.50;33.30;;;;;;5098778;28;20566;-82
2022/10/10 10:47:44;;;;;;;6.07;2.20;;;22.90;30.70;;;;;;5097926;28;20230;-82
2022/10/10 10:50:41;;;;;;;4.63;2.30;;;22.70;30.90;;;;;;5098848;28;20259;-82
2022/10/10 10:53:37;;;;;;;3.88;1.95;;;22.70;30.90;;;;;;5095444;28;20200;-84
2022/10/10 10:56:26;;;;;;;3.40;1.80;;;22.20;33.90;;;;;;5090883;28;20210;-82
2022/10/10 10:59:09;;;;;;;7.82;2.30;;;21.90;33.60;;;;;;5098703;28;20210;-82
2022/10/10 11:05:15;;;;;;;3.50;1.90;;;21.80;33.60;;;;;;5099683;28;20218;-80
2022/10/10 11:07:59;;;;;;;8.30;2.15;;;21.70;34.60;;;;;;5086475;28;20199;-81
2022/10/10 11:10:43;;;;;;;4.35;2.10;;;21.70;34.40;;;;;;5095837;28;20218;-81
2022/10/10 11:13:17;;;;;;;6.25;2.25;;;21.40;39.60;;;;;;5088289;28;20189;-82
2022/10/10 11:16:10;;;;;;;4.75;1.92;;;21.60;38.00;;;;;;5091034;28;20570;-82
2022/10/10 11:18:42;;;;;;;3.72;2.20;;;21.50;41.90;;;;;;5088953;28;20201;-84
2022/10/10 11:21:28;;;;;;;9.50;6.22;;;21.30;42.70;;;;;;5089210;28;20197;-86
2022/10/10 11:24:36;;;;;;;3.50;1.95;;;21.40;40.90;;;;;;5094613;28;20287;-84
2022/10/10 11:27:24;;;;;;;5.32;2.05;;;21.40;41.20;;;;;;5088035;28;20203;-85
2022/10/10 11:30:00;;;;;;;5.45;1.95;;;21.40;43.00;;;;;;5092246;28;20203;-84
2022/10/10 11:32:50;;;;;;;4.63;2.17;;;21.50;42.10;;;;;;5094725;28;20295;-84
2022/10/10 11:35:36;;;;;;;6.60;2.08;;;21.40;39.50;;;;;;5089429;28;20193;-84
2022/10/10 11:38:15;;;;;;;4.13;2.10;;;21.40;40.20;;;;;;5090375;28;20198;-84
2022/10/10 11:41:13;;;;;;;6.32;2.15;;;21.30;38.70;;;;;;5090717;28;20193;-85
2022/10/10 11:43:48;;;;;;;4.40;2.33;;;21.00;39.30;;;;;;5092732;28;20201;-85
2022/10/10 11:46:30;;;;;;;4.53;2.03;;;21.00;41.10;;;;;;5092032;28;20197;-84
2022/10/10 11:49:08;;;;;;;5.38;1.90;;;21.10;39.70;;;;;;5094204;28;20261;-84
2022/10/10 11:51:43;;;;;;;6.78;2.00;;;21.30;40.30;;;;;;5091690;28;20292;-88
2022/10/10 11:54:22;;;;;;;6.78;2.30;;;21.20;39.70;;;;;;5086119;28;20196;-84
2022/10/10 11:57:00;;;;;;;7.32;2.03;;;21.40;39.00;;;;;;5091883;28;20188;-84
2022/10/10 11:59:38;;;;;;;3.55;2.30;;;21.30;39.60;;;;;;5098850;28;20196;-84
2022/10/10 12:02:17;;;;;;;4.45;2.13;;;21.30;42.60;;;;;;5094627;28;20220;-84
2022/10/10 12:04:45;;;;;;;4.78;2.15;;;21.20;41.90;;;;;;5081495;28;20216;-85
2022/10/10 12:07:19;;;;;;;4.60;2.10;;;21.10;42.40;;;;;;5091167;28;20271;-84
2022/10/10 12:09:54;;;;;;;4.63;2.17;;;20.90;41.80;;;;;;5096587;28;20208;-84
2022/10/10 12:12:35;;;;;;;5.88;2.08;;;20.80;44.90;;;;;;5095701;28;20192;-84
2022/10/10 12:15:27;;;;;;;5.97;2.00;;;20.70;46.80;;;;;;5095836;28;20192;-85
2022/10/10 12:17:54;;;;;;;9.98;2.35;;;20.80;44.90;;;;;;5093641;28;20196;-83
2022/10/10 12:20:33;;;;;;;5.43;2.20;;;20.80;44.50;;;;;;5097864;28;20203;-83
2022/10/10 12:23:18;;;;;;;3.30;1.98;;;20.70;46.30;;;;;;5094570;28;20231;-84
2022/10/10 12:25:46;;;;;;;4.55;2.05;;;20.60;48.50;;;;;;5095536;28;20199;-83
2022/10/10 12:28:57;;;;;;;3.58;2.13;;;20.50;47.30;;;;;;5091684;28;20562;-83
2022/10/10 12:31:43;;;;;;;6.20;2.53;;;20.50;48.70;;;;;;5096149;28;20184;-86
2022/10/10 12:34:37;;;;;;;3.83;1.85;;;20.60;50.10;;;;;;5081926;28;20644;-86
2022/10/10 12:37:36;;;;;;;5.32;2.30;;;20.60;49.60;;;;;;5087216;28;20193;-84
2022/10/10 12:40:22;;;;;;;6.95;2.30;;;20.70;48.40;;;;;;5087019;28;20284;-84
2022/10/10 12:43:24;;;;;;;5.30;2.20;;;20.80;47.70;;;;;;5091163;28;20204;-87
2022/10/10 12:46:23;;;;;;;5.10;1.88;;;20.80;48.50;;;;;;5093479;28;20267;-84
2022/10/10 12:49:05;;;;;;;2.88;1.65;;;20.60;46.10;;;;;;5081767;28;20278;-83
2022/10/10 12:51:44;;;;;;;5.53;1.80;;;20.60;48.50;;;;;;5092065;28;20544;-84
2022/10/10 12:54:23;;;;;;;3.47;1.95;;;20.70;48.50;;;;;;5094737;28;20666;-84
2022/10/10 12:56:57;;;;;;;5.35;1.98;;;20.70;48.00;;;;;;5098301;28;20200;-83
2022/10/10 12:59:30;;;;;;;3.70;1.70;;;20.70;48.60;;;;;;5095887;28;20216;-84
2022/10/10 13:02:05;;;;;;;4.15;1.90;;;20.60;48.40;;;;;;5097872;28;20566;-86
2022/10/10 13:04:45;;;;;;;2.85;1.95;;;20.50;48.70;;;;;;5095789;28;20679;-84
2022/10/10 13:07:16;;;;;;;7.32;2.03;;;20.50;50.70;;;;;;5098721;28;20203;-83
2022/10/10 13:09:51;;;;;;;7.95;2.13;;;20.30;51.40;;;;;;5101227;28;20239;-84
2022/10/10 13:12:42;;;;;;;5.95;2.00;;;20.40;49.90;;;;;;5095490;28;20189;-85
2022/10/10 13:19:00;;;;;;;5.00;2.35;;;20.20;51.60;;;;;;5081187;28;20196;-83
2022/10/10 13:21:38;;;;;;;5.10;2.15;;;20.20;52.30;;;;;;5095490;28;20196;-82
2022/10/10 13:24:21;;;;;;;4.78;2.30;;;20.20;55.00;;;;;;5093707;28;20216;-83
2022/10/10 13:27:01;;;;;;;5.30;2.00;;;20.20;54.20;;;;;;5090998;28;20200;-83
2022/10/10 13:29:33;;;;;;;3.92;1.98;;;20.10;52.30;;;;;;5098065;28;20204;-83
2022/10/10 13:35:27;;;;;;;6.22;2.20;;;20.10;56.00;;;;;;5085895;28;20237;-83
2022/10/10 13:37:57;;;;;;;5.30;2.30;;;20.00;55.90;;;;;;5096060;28;20205;-82
2022/10/10 13:40:54;;;;;;;5.55;2.38;;;20.00;58.20;;;;;;5100545;28;20196;-83
2022/10/10 13:43:31;;;;;;;8.48;2.35;;;20.00;55.90;;;;;;5097147;28;20249;-82
2022/10/10 13:46:31;;;;;;;8.30;2.70;;;20.10;56.10;;;;;;5092244;28;20196;-82
2022/10/10 13:48:59;;;;;;;6.68;2.40;;;20.10;56.00;;;;;;5100828;28;20697;-83
2022/10/10 13:51:43;;;;;;;5.95;2.13;;;20.20;56.10;;;;;;5097557;28;20562;-81
2022/10/10 13:54:42;;;;;;;4.85;1.92;;;20.10;57.20;;;;;;5097147;28;20669;-81
2022/10/10 13:57:16;;;;;;;5.57;2.28;;;20.20;56.10;;;;;;5059049;28;20207;-82
2022/10/10 14:00:08;;;;;;;7.22;2.05;;;20.10;56.10;;;;;;5096563;28;20200;-83
2022/10/10 14:02:37;;;;;;;6.38;2.00;;;20.00;61.70;;;;;;5090474;28;20277;-82
2022/10/10 14:05:15;;;;;;;5.10;2.10;;;20.00;61.80;;;;;;5090727;28;20326;-82
2022/10/10 14:07:56;;;;;;;8.60;2.00;;;20.00;64.20;;;;;;5100601;28;20185;-82
2022/10/10 14:10:26;;;;;;;3.25;2.08;;;20.00;63.90;;;;;;5098670;28;20249;-83
2022/10/10 14:12:58;;;;;;;4.95;2.30;;;20.00;60.90;;;;;;5095653;28;20270;-82
2022/10/10 14:16:06;;;;;;;5.72;2.40;;;19.90;63.90;;;;;;5091816;28;20253;-82
2022/10/10 14:19:24;;;;;;;8.43;3.47;;;19.80;66.40;;;;;;5097060;28;20275;-82
2022/10/10 14:21:54;;;;;;;7.43;3.38;;;19.70;69.50;;;;;;5093096;28;20231;-81
2022/10/10 14:27:44;;;;;;;4.00;2.25;;;19.60;70.60;;;;;;5096028;28;20176;-82
2022/10/10 14:30:14;;;;;;;6.50;2.63;;;19.60;70.40;;;;;;5080463;28;20204;-81
2022/10/10 14:36:08;;;;;;;5.45;2.63;;;19.60;73.30;;;;;;5098931;28;20286;-83
2022/10/10 14:38:35;;;;;;;5.68;2.10;;;19.50;76.00;;;;;;5097822;28;20557;-84
2022/10/10 14:44:49;;;;;;;6.95;2.60;;;19.30;74.90;;;;;;5093409;28;20229;-84
2022/10/10 14:47:25;;;;;;;4.97;2.33;;;19.30;75.20;;;;;;5088985;28;20198;-81
2022/10/10 14:49:56;;;;;;;7.30;2.60;;;19.20;75.40;;;;;;5097787;28;20315;-83
2022/10/10 14:52:24;;;;;;;3.50;2.20;;;19.10;76.60;;;;;;5090205;28;20185;-83
2022/10/10 14:54:54;;;;;;;5.65;2.00;;;19.10;77.70;;;;;;5090049;28;20193;-83
2022/10/10 14:57:54;;;;;;;4.57;3.00;;;19.10;77.90;;;;;;5097481;28;20224;-83
2022/10/10 15:00:27;;;;;;;3.75;2.22;;;19.10;79.00;;;;;;5097375;28;20280;-83
2022/10/10 15:02:54;;;;;;;4.90;2.60;;;19.00;78.50;;;;;;5090063;28;20204;-84
2022/10/10 15:05:30;;;;;;;5.68;2.28;;;19.00;79.10;;;;;;5099909;28;20231;-83
2022/10/10 15:08:00;;;;;;;4.75;2.85;;;19.00;79.60;;;;;;5090153;28;20224;-82
2022/10/10 15:10:37;;;;;;;7.90;2.85;;;19.10;80.20;;;;;;5103189;28;20238;-83
2022/10/10 15:13:06;;;;;;;6.65;2.15;;;19.00;80.10;;;;;;5081242;28;20574;-84
2022/10/10 15:15:50;;;;;;;7.50;2.20;;;19.10;78.70;;;;;;5082403;28;20197;-84
2022/10/10 15:18:17;;;;;;;8.45;2.30;;;19.00;78.60;;;;;;5086674;28;20235;-84
2022/10/10 15:21:09;;;;;;;4.63;2.25;;;18.90;79.90;;;;;;5088370;28;20245;-85
2022/10/10 15:27:01;;;;;;;8.38;2.47;;;18.70;81.10;;;;;;5095453;28;20227;-83
2022/10/10 15:29:28;;;;;;;4.55;2.38;;;18.60;81.80;;;;;;5082810;28;20228;-84
2022/10/10 15:32:14;;;;;;;5.03;2.40;;;18.50;82.50;;;;;;5088563;28;20211;-85